Time;durP1;ratioP1;P1;durP2;ratioP2;P2;SDS_P1;SDS_P2;PMS_P1;PMS_P2;Temp;Humidity;BMP_temperature;BMP_pressure;BME280_temperature;BME280_humidity;BME280_pressure;Samples;Min_cycle;Max_cycle;Signal;HPM_P1;HPM_P2
2023/05/21 00:02:14;;;;;;;15.52;10.70;;;;;;;14.94;80.86;95939.06;5079018;28;20049;-76
2023/05/21 00:04:41;;;;;;;14.27;10.82;;;;;;;14.94;80.67;95936.31;5092170;28;20512;-76
2023/05/21 00:07:08;;;;;;;17.08;11.10;;;;;;;14.93;80.56;95929.22;5076964;28;20045;-76
2023/05/21 00:09:37;;;;;;;14.75;10.93;;;;;;;14.85;80.93;95920.06;5092826;28;20036;-76
2023/05/21 00:12:04;;;;;;;24.92;11.43;;;;;;;14.96;80.54;95921.09;5083122;28;20037;-75
2023/05/21 00:14:30;;;;;;;15.75;10.82;;;;;;;14.97;80.35;95921.88;5070863;28;20475;-76
2023/05/21 00:16:57;;;;;;;14.55;11.40;;;;;;;14.99;80.19;95919.59;5078298;28;20051;-76
2023/05/21 00:19:25;;;;;;;13.02;10.38;;;;;;;14.87;80.26;95918.53;5077841;28;20052;-76
2023/05/21 00:21:52;;;;;;;15.02;10.32;;;;;;;14.80;80.93;95914.84;5075656;28;20512;-76
2023/05/21 00:24:18;;;;;;;14.77;10.80;;;;;;;14.74;80.76;95919.81;5077063;28;20051;-76
2023/05/21 00:26:46;;;;;;;16.05;10.40;;;;;;;14.75;81.17;95910.41;5073367;28;20044;-75
2023/05/21 00:29:13;;;;;;;34.95;12.23;;;;;;;14.66;80.46;95912.53;5073806;28;20049;-76
2023/05/21 00:31:39;;;;;;;15.25;10.18;;;;;;;14.60;80.74;95908.50;5079922;28;20036;-76
2023/05/21 00:34:06;;;;;;;17.50;10.13;;;;;;;14.67;79.87;95905.13;5071303;28;20044;-75
2023/05/21 00:36:33;;;;;;;13.77;10.10;;;;;;;14.59;79.75;95909.66;5070093;28;20036;-75
2023/05/21 00:39:01;;;;;;;16.75;11.15;;;;;;;14.50;80.01;95904.34;5071257;28;20476;-75
2023/05/21 00:41:28;;;;;;;20.60;11.05;;;;;;;14.61;79.67;95893.63;5071571;28;20052;-76
2023/05/21 00:43:59;;;;;;;14.68;10.20;;;;;;;14.43;79.56;95900.59;5071184;28;20045;-76
2023/05/21 00:46:27;;;;;;;14.80;10.55;;;;;;;14.50;79.50;95898.06;5070417;28;20071;-76
2023/05/21 00:48:54;;;;;;;12.57;9.43;;;;;;;14.53;78.95;95891.88;5066201;28;20093;-76
2023/05/21 00:51:21;;;;;;;15.35;10.23;;;;;;;14.53;79.20;95891.88;5070529;28;20068;-76
2023/05/21 00:53:50;;;;;;;13.90;10.40;;;;;;;14.47;78.63;95893.28;5071628;28;20040;-76
2023/05/21 00:56:18;;;;;;;14.45;10.23;;;;;;;14.40;78.80;95887.59;5071350;28;20078;-76
2023/05/21 00:58:45;;;;;;;22.77;10.43;;;;;;;14.29;79.01;95890.88;5071179;28;20600;-76
2023/05/21 01:01:13;;;;;;;13.43;9.60;;;;;;;14.45;78.70;95890.06;5070491;28;20048;-75
2023/05/21 01:03:40;;;;;;;15.52;10.55;;;;;;;14.50;78.85;95887.09;5071593;28;20527;-75
2023/05/21 01:06:12;;;;;;;13.75;9.70;;;;;;;14.46;78.02;95892.47;5070228;28;20055;-78
2023/05/21 01:08:40;;;;;;;16.25;10.35;;;;;;;14.44;77.91;95888.50;5063667;28;20040;-76
2023/05/21 01:11:09;;;;;;;12.63;9.48;;;;;;;14.48;77.98;95889.41;5052729;28;20044;-76
2023/05/21 01:13:39;;;;;;;14.15;9.95;;;;;;;14.40;77.54;95887.59;5070618;28;20070;-75
2023/05/21 01:16:07;;;;;;;13.57;9.45;;;;;;;14.46;77.79;95891.66;5068069;28;20443;-75
2023/05/21 01:18:36;;;;;;;12.48;9.27;;;;;;;14.52;77.70;95890.31;5070953;28;20045;-76
2023/05/21 01:21:03;;;;;;;12.30;9.43;;;;;;;14.50;77.19;95887.09;5069829;28;20052;-76
2023/05/21 01:23:31;;;;;;;14.52;10.00;;;;;;;14.42;77.46;95888.06;5070871;28;20048;-75
2023/05/21 01:25:58;;;;;;;14.23;9.95;;;;;;;14.44;77.17;95888.50;5070370;28;20043;-76
2023/05/21 01:28:25;;;;;;;13.32;10.13;;;;;;;14.45;77.84;95890.06;5072552;28;20488;-77
2023/05/21 01:30:52;;;;;;;13.48;10.35;;;;;;;14.32;77.77;95886.66;5076966;28;20040;-76
2023/05/21 01:33:25;;;;;;;14.30;9.60;;;;;;;14.37;77.92;95894.59;5070025;28;20040;-76
2023/05/21 01:35:59;;;;;;;16.38;9.82;;;;;;;14.38;77.81;95889.91;5070545;28;20041;-76
2023/05/21 01:38:31;;;;;;;12.95;9.50;;;;;;;14.29;77.78;95890.88;5070039;28;20041;-76
2023/05/21 01:41:02;;;;;;;13.85;9.80;;;;;;;14.25;78.07;95884.53;5072120;28;20052;-75
2023/05/21 01:43:32;;;;;;;14.10;9.63;;;;;;;14.28;78.12;95886.53;5071478;28;20048;-75
2023/05/21 01:46:00;;;;;;;13.73;9.25;;;;;;;14.32;77.52;95890.19;5070585;28;20038;-76
2023/05/21 01:48:28;;;;;;;15.00;9.68;;;;;;;14.29;77.75;95888.13;5071015;28;20117;-75
2023/05/21 01:50:57;;;;;;;14.13;9.25;;;;;;;14.36;77.23;95885.59;5073227;28;20044;-75
2023/05/21 01:53:24;;;;;;;13.50;9.40;;;;;;;14.43;77.50;95887.69;5073031;28;20066;-76
2023/05/21 01:55:50;;;;;;;12.32;9.43;;;;;;;14.35;77.18;95883.19;5070864;28;20425;-76
2023/05/21 01:58:20;;;;;;;11.75;8.98;;;;;;;14.37;77.26;95889.13;5069916;28;20056;-75
2023/05/21 02:00:47;;;;;;;15.98;9.10;;;;;;;14.22;76.48;95887.97;5070401;28;20506;-75
2023/05/21 02:03:15;;;;;;;13.68;9.00;;;;;;;14.22;76.89;95881.69;5069008;28;20045;-76
2023/05/21 02:05:41;;;;;;;14.48;8.55;;;;;;;14.28;76.82;95881.06;5069173;28;20484;-76
2023/05/21 02:08:08;;;;;;;18.13;9.30;;;;;;;14.20;76.70;95884.78;5068922;28;20488;-75
2023/05/21 02:10:35;;;;;;;15.05;9.27;;;;;;;14.18;76.67;95876.13;5068936;28;20032;-75
2023/05/21 02:13:01;;;;;;;15.32;9.20;;;;;;;14.12;76.63;95883.00;5070328;28;20048;-75
2023/05/21 02:15:29;;;;;;;13.05;9.05;;;;;;;14.17;76.57;95885.50;5069608;28;20404;-75
2023/05/21 02:17:57;;;;;;;13.57;8.93;;;;;;;14.10;76.74;95879.84;5069873;28;20057;-75
2023/05/21 02:20:23;;;;;;;13.23;9.13;;;;;;;14.08;76.04;95882.13;5068926;28;20055;-75
2023/05/21 02:22:50;;;;;;;15.88;10.20;;;;;;;13.89;76.32;95877.34;5068950;28;20043;-75
2023/05/21 02:25:18;;;;;;;36.78;10.45;;;;;;;13.89;76.33;95885.56;5068777;28;20044;-75
2023/05/21 02:27:45;;;;;;;13.38;9.02;;;;;;;13.92;76.74;95881.31;5070244;28;20116;-75
2023/05/21 02:30:13;;;;;;;12.85;8.88;;;;;;;13.90;76.64;95881.66;5069166;28;20084;-77
2023/05/21 02:32:42;;;;;;;13.30;9.60;;;;;;;13.84;76.91;95889.34;5070214;28;20071;-75
2023/05/21 02:35:11;;;;;;;14.25;8.68;;;;;;;13.76;77.26;95879.31;5069613;28;20044;-77
2023/05/21 02:37:40;;;;;;;13.35;9.82;;;;;;;13.80;77.26;95882.16;5081454;28;20047;-75
2023/05/21 02:40:08;;;;;;;13.15;9.50;;;;;;;13.72;77.24;95874.91;5089645;28;20044;-75
2023/05/21 02:42:36;;;;;;;11.20;8.70;;;;;;;13.71;76.73;95873.31;5069904;28;20080;-76
2023/05/21 02:45:05;;;;;;;12.43;9.00;;;;;;;13.63;77.21;95872.34;5068847;28;20478;-76
2023/05/21 02:47:32;;;;;;;17.60;8.90;;;;;;;13.58;76.60;95878.06;5071085;28;20127;-76
2023/05/21 02:50:01;;;;;;;12.05;7.95;;;;;;;13.60;76.50;95872.22;5069331;28;20052;-75
2023/05/21 02:52:28;;;;;;;11.00;7.95;;;;;;;13.66;76.33;95866.16;5068801;28;20563;-74
2023/05/21 02:54:54;;;;;;;12.38;8.30;;;;;;;13.67;76.38;95872.41;5069283;28;20668;-77
2023/05/21 02:57:21;;;;;;;12.45;8.52;;;;;;;13.67;75.82;95873.22;5068764;28;20098;-76
2023/05/21 02:59:47;;;;;;;10.27;7.72;;;;;;;13.56;75.70;95866.66;5069675;28;20037;-76
2023/05/21 03:02:14;;;;;;;12.48;8.00;;;;;;;13.54;75.48;95877.16;5075605;28;20499;-75
2023/05/21 03:04:45;;;;;;;13.73;8.25;;;;;;;13.55;74.82;95870.53;5069501;28;20522;-76
2023/05/21 03:07:13;;;;;;;10.25;7.45;;;;;;;13.60;75.08;95866.75;5069219;28;20123;-77
2023/05/21 03:09:40;;;;;;;10.77;7.47;;;;;;;13.58;75.15;95865.19;5081696;28;20052;-75
2023/05/21 03:12:07;;;;;;;11.20;7.65;;;;;;;13.55;74.78;95873.28;5088953;28;20040;-77
2023/05/21 03:14:34;;;;;;;10.30;7.32;;;;;;;13.61;75.91;95869.13;5068056;28;20040;-75
2023/05/21 03:17:02;;;;;;;15.75;7.55;;;;;;;13.68;74.73;95861.16;5069104;28;20067;-75
2023/05/21 03:19:29;;;;;;;11.10;7.95;;;;;;;13.74;74.68;95869.88;5069418;28;20053;-75
2023/05/21 03:21:55;;;;;;;12.15;8.27;;;;;;;13.71;75.77;95868.63;5069043;28;20051;-75
2023/05/21 03:24:23;;;;;;;26.67;8.82;;;;;;;13.71;75.20;95868.63;5069053;28;20056;-74
2023/05/21 03:26:50;;;;;;;11.95;7.75;;;;;;;13.60;74.98;95866.75;5069355;28;20052;-75
2023/05/21 03:29:16;;;;;;;10.05;7.60;;;;;;;13.54;75.55;95864.28;5068758;28;20048;-75
2023/05/21 03:31:42;;;;;;;12.73;7.55;;;;;;;13.60;75.74;95862.06;5061390;28;20053;-75
2023/05/21 03:34:09;;;;;;;11.57;8.05;;;;;;;13.54;76.17;95861.53;5068504;28;20060;-76
2023/05/21 03:36:35;;;;;;;12.18;7.78;;;;;;;13.50;76.34;95862.56;5080330;28;20044;-76
2023/05/21 03:39:02;;;;;;;15.65;8.68;;;;;;;13.50;76.03;95857.09;5089225;28;20040;-76
2023/05/21 03:41:30;;;;;;;11.10;7.82;;;;;;;13.49;76.10;95858.25;5079166;28;20064;-76
2023/05/21 03:43:56;;;;;;;13.18;7.63;;;;;;;13.49;76.33;95855.53;5069358;28;20045;-76
2023/05/21 03:46:23;;;;;;;11.63;7.28;;;;;;;13.40;75.99;95857.59;5068624;28;20036;-75
2023/05/21 03:48:49;;;;;;;12.48;7.40;;;;;;;13.37;76.16;95855.59;5068805;28;20039;-75
2023/05/21 03:51:16;;;;;;;28.17;8.88;;;;;;;13.24;76.63;95860.28;5069008;28;20526;-75
2023/05/21 03:53:43;;;;;;;10.57;7.45;;;;;;;13.32;76.26;95862.09;5074436;28;20066;-75
2023/05/21 03:56:09;;;;;;;11.82;7.25;;;;;;;13.23;76.22;95850.50;5072349;28;20053;-75
2023/05/21 03:58:37;;;;;;;12.20;7.80;;;;;;;13.31;76.29;95864.03;5068723;28;20041;-75
2023/05/21 04:01:04;;;;;;;11.95;7.50;;;;;;;13.29;77.18;95869.03;5070250;28;20051;-76
2023/05/21 04:03:31;;;;;;;9.18;6.70;;;;;;;13.32;76.37;95862.88;5072562;28;20044;-75
2023/05/21 04:05:58;;;;;;;9.88;6.72;;;;;;;13.25;76.22;95859.13;5072244;28;20048;-75
2023/05/21 04:08:25;;;;;;;28.83;8.52;;;;;;;13.27;76.39;95863.13;5089509;28;20040;-76
2023/05/21 04:10:51;;;;;;;12.05;7.55;;;;;;;13.30;76.45;95862.41;5092713;28;20522;-75
2023/05/21 04:13:18;;;;;;;9.98;6.65;;;;;;;13.43;75.96;95857.72;5075582;28;20045;-75
2023/05/21 04:15:45;;;;;;;10.98;6.82;;;;;;;13.40;75.48;95863.06;5079734;28;20489;-75
2023/05/21 04:18:14;;;;;;;9.70;6.75;;;;;;;13.48;76.76;95870.34;5071329;28;20048;-76
2023/05/21 04:20:40;;;;;;;10.20;6.70;;;;;;;13.58;75.63;95864.38;5072135;28;20048;-75
2023/05/21 04:23:08;;;;;;;9.27;6.07;;;;;;;13.64;75.75;95873.91;5071848;28;20071;-74
2023/05/21 04:25:34;;;;;;;10.23;6.70;;;;;;;13.51;76.33;95875.91;5083114;28;20098;-75
2023/05/21 04:28:01;;;;;;;11.63;7.03;;;;;;;13.45;76.74;95876.50;5086856;28;20044;-75
2023/05/21 04:30:27;;;;;;;10.68;6.68;;;;;;;13.54;77.32;95868.94;5071538;28;20044;-75
2023/05/21 04:32:56;;;;;;;15.98;6.70;;;;;;;13.53;77.19;95875.56;5071737;28;20057;-75
2023/05/21 04:35:23;;;;;;;11.13;6.50;;;;;;;13.49;77.67;95883.66;5071547;28;20044;-75
2023/05/21 04:37:50;;;;;;;10.45;7.32;;;;;;;13.52;77.69;95877.50;5071911;28;20574;-75
2023/05/21 04:40:23;;;;;;;10.40;6.82;;;;;;;13.71;77.65;95879.59;5071279;28;20495;-76
2023/05/21 04:42:49;;;;;;;12.20;7.32;;;;;;;13.65;77.84;95875.50;5070544;28;20090;-76
2023/05/21 04:45:16;;;;;;;11.52;7.00;;;;;;;13.66;78.11;95877.09;5079208;28;20052;-75
2023/05/21 04:47:43;;;;;;;10.70;6.88;;;;;;;13.78;77.96;95887.19;5078259;28;20037;-75
2023/05/21 04:50:11;;;;;;;9.65;6.72;;;;;;;13.63;78.65;95882.50;5071824;28;20049;-75
2023/05/21 04:52:39;;;;;;;11.60;7.47;;;;;;;13.76;78.92;95882.06;5072472;28;20048;-76
2023/05/21 04:55:06;;;;;;;10.48;7.18;;;;;;;13.61;79.43;95880.09;5066979;28;20045;-76
2023/05/21 04:57:34;;;;;;;10.93;6.88;;;;;;;13.69;78.91;95887.34;5071684;28;20044;-75
2023/05/21 05:00:00;;;;;;;9.25;6.82;;;;;;;13.64;79.88;95890.34;5071664;28;20044;-75
2023/05/21 05:02:27;;;;;;;9.90;6.85;;;;;;;13.64;78.92;95882.13;5071591;28;20068;-75
2023/05/21 05:04:53;;;;;;;11.27;7.00;;;;;;;13.78;78.78;95877.06;5071320;28;20044;-75
2023/05/21 05:07:21;;;;;;;10.00;7.10;;;;;;;13.67;78.96;95883.34;5070841;28;20144;-75
2023/05/21 05:09:48;;;;;;;13.65;7.70;;;;;;;13.65;79.28;95883.72;5071546;28;20073;-76
2023/05/21 05:12:14;;;;;;;11.77;7.65;;;;;;;13.80;79.06;95887.66;5070367;28;20412;-77
2023/05/21 05:14:41;;;;;;;11.63;7.38;;;;;;;13.70;79.24;95883.47;5071139;28;20044;-76
2023/05/21 05:17:09;;;;;;;14.38;7.43;;;;;;;13.83;79.47;95885.00;5070688;28;20048;-76
2023/05/21 05:19:35;;;;;;;13.02;7.15;;;;;;;13.79;79.55;95886.06;5071528;28;20056;-76
2023/05/21 05:22:02;;;;;;;11.13;7.80;;;;;;;13.79;79.93;95883.31;5070573;28;20070;-76
2023/05/21 05:24:30;;;;;;;10.57;7.47;;;;;;;13.82;79.80;95880.66;5070308;28;20055;-75
2023/05/21 05:26:57;;;;;;;11.88;7.93;;;;;;;13.94;79.83;95881.72;5065739;28;20400;-76
2023/05/21 05:29:24;;;;;;;22.20;8.10;;;;;;;13.92;79.65;95878.56;5072386;28;20059;-76
2023/05/21 05:31:50;;;;;;;10.52;7.85;;;;;;;14.02;79.02;95886.25;5073285;28;20507;-77
2023/05/21 05:34:17;;;;;;;11.23;7.72;;;;;;;14.09;79.79;95883.69;5071975;28;20044;-77
2023/05/21 05:36:43;;;;;;;11.32;6.97;;;;;;;14.16;79.27;95889.38;5073628;28;20587;-76
2023/05/21 05:39:10;;;;;;;10.05;7.35;;;;;;;13.98;78.54;95877.94;5072951;28;20056;-77
2023/05/21 05:41:38;;;;;;;10.25;7.57;;;;;;;14.15;78.60;95881.50;5080702;28;20071;-75
2023/05/21 05:44:05;;;;;;;12.73;7.18;;;;;;;14.31;78.29;95879.59;5077255;28;20045;-76
2023/05/21 05:46:31;;;;;;;10.07;7.05;;;;;;;14.49;78.19;95877.31;5073054;28;20063;-77
2023/05/21 05:48:58;;;;;;;10.82;6.88;;;;;;;14.39;77.99;95886.81;5073067;28;20036;-75
2023/05/21 05:51:24;;;;;;;15.25;7.57;;;;;;;14.44;78.23;95883.00;5082876;28;20047;-77
2023/05/21 05:53:51;;;;;;;11.35;7.50;;;;;;;14.49;78.46;95885.53;5084937;28;20032;-76
2023/05/21 05:56:17;;;;;;;21.08;8.15;;;;;;;14.53;78.52;95889.16;5090437;28;20048;-75
2023/05/21 05:58:45;;;;;;;13.93;7.43;;;;;;;14.51;78.35;95894.16;5089176;28;20051;-76
2023/05/21 06:01:12;;;;;;;9.88;7.10;;;;;;;14.66;77.98;95896.09;5082797;28;20052;-76
2023/05/21 06:03:38;;;;;;;10.02;7.50;;;;;;;14.67;78.19;95892.22;5088043;28;20557;-75
2023/05/21 06:06:05;;;;;;;10.20;7.18;;;;;;;14.59;76.93;95894.00;5078172;28;20040;-75
2023/05/21 06:08:33;;;;;;;12.43;7.43;;;;;;;14.73;77.05;95896.28;5080603;28;20050;-75
2023/05/21 06:11:00;;;;;;;9.77;7.40;;;;;;;14.65;76.41;95894.53;5086005;28;20044;-76
2023/05/21 06:13:27;;;;;;;10.88;7.93;;;;;;;14.65;76.90;95905.47;5089930;28;20045;-75
2023/05/21 06:15:54;;;;;;;10.93;7.60;;;;;;;14.86;77.41;95895.00;5069087;28;20500;-76
2023/05/21 06:18:21;;;;;;;12.93;7.53;;;;;;;14.80;77.39;95904.66;5085422;28;20043;-76
2023/05/21 06:20:47;;;;;;;9.88;7.82;;;;;;;14.83;77.35;95897.69;5087068;28;20044;-77
2023/05/21 06:23:14;;;;;;;11.98;7.55;;;;;;;14.92;76.22;95902.97;5076611;28;20505;-76
2023/05/21 06:25:40;;;;;;;9.73;7.32;;;;;;;14.94;76.14;95889.72;5079279;28;20049;-77
2023/05/21 06:28:07;;;;;;;12.73;7.60;;;;;;;14.84;76.54;95902.81;5098689;28;20046;-77
2023/05/21 06:30:33;;;;;;;12.98;7.88;;;;;;;14.93;76.45;95894.41;5083039;28;20051;-77
2023/05/21 06:33:01;;;;;;;11.00;7.80;;;;;;;14.91;76.31;95893.16;5078788;28;20051;-77
2023/05/21 06:35:28;;;;;;;10.95;8.13;;;;;;;14.99;77.38;95897.66;5084373;28;20040;-77
2023/05/21 06:37:54;;;;;;;10.93;7.78;;;;;;;15.11;77.53;95883.81;5074644;28;20044;-77
2023/05/21 06:40:21;;;;;;;28.20;9.07;;;;;;;15.17;77.17;95887.88;5090626;28;20101;-78
2023/05/21 06:42:48;;;;;;;13.63;8.75;;;;;;;15.17;77.21;95882.38;5090682;28;20049;-77
2023/05/21 06:45:14;;;;;;;12.88;8.73;;;;;;;15.10;76.98;95893.22;5072478;28;20051;-77
2023/05/21 06:47:41;;;;;;;13.00;8.80;;;;;;;15.17;77.04;95885.13;5070488;28;20060;-76
2023/05/21 06:50:09;;;;;;;11.07;8.60;;;;;;;15.22;77.53;95887.59;5069053;28;20118;-77
2023/05/21 06:52:36;;;;;;;12.63;8.10;;;;;;;15.31;77.11;95892.88;5069047;28;20037;-77
2023/05/21 06:55:02;;;;;;;24.08;9.43;;;;;;;15.28;78.11;95888.09;5069605;28;20040;-76
2023/05/21 06:57:30;;;;;;;31.98;9.95;;;;;;;15.29;78.76;95890.47;5069563;28;20040;-77
2023/05/21 06:59:57;;;;;;;12.65;9.02;;;;;;;15.28;77.46;95893.59;5069823;28;20040;-76
2023/05/21 07:02:23;;;;;;;12.02;8.43;;;;;;;15.38;77.52;95887.53;5069724;28;20546;-76
2023/05/21 07:04:50;;;;;;;13.15;9.15;;;;;;;15.41;77.24;95895.06;5069287;28;20056;-77
2023/05/21 07:07:18;;;;;;;11.77;8.98;;;;;;;15.50;77.57;95897.56;5069722;28;20052;-77
2023/05/21 07:09:45;;;;;;;12.07;8.48;;;;;;;15.48;77.31;95897.16;5069765;28;20040;-76
2023/05/21 07:12:11;;;;;;;13.00;8.30;;;;;;;15.58;77.15;95891.09;5075606;28;20036;-76
2023/05/21 07:14:37;;;;;;;11.75;8.95;;;;;;;15.61;76.72;95891.16;5076250;28;20055;-76
2023/05/21 07:17:04;;;;;;;16.02;9.07;;;;;;;15.64;77.08;95889.66;5068201;28;20056;-75
2023/05/21 07:19:31;;;;;;;14.10;10.45;;;;;;;15.71;77.91;95884.31;5086793;28;20051;-76
2023/05/21 07:21:57;;;;;;;14.02;9.63;;;;;;;15.77;76.73;95882.88;5074266;28;20049;-76
2023/05/21 07:24:26;;;;;;;13.10;10.05;;;;;;;15.88;76.92;95880.34;5069207;28;20048;-76
2023/05/21 07:26:52;;;;;;;13.52;8.75;;;;;;;15.97;77.63;95885.56;5069471;28;20044;-77
2023/05/21 07:29:19;;;;;;;11.73;9.02;;;;;;;16.08;76.94;95883.84;5069258;28;20044;-77
2023/05/21 07:31:45;;;;;;;12.60;9.30;;;;;;;16.17;77.03;95885.16;5070042;28;20144;-76
2023/05/21 07:34:12;;;;;;;26.45;10.40;;;;;;;16.24;77.13;95884.53;5068551;28;20058;-77
2023/05/21 07:36:38;;;;;;;14.35;9.07;;;;;;;16.33;76.65;95884.25;5071779;28;20040;-76
2023/05/21 07:39:05;;;;;;;12.27;9.30;;;;;;;16.42;74.89;95882.88;5072369;28;20045;-76
2023/05/21 07:41:33;;;;;;;12.18;9.10;;;;;;;16.56;76.12;95890.56;5072457;28;20113;-76
2023/05/21 07:44:00;;;;;;;13.32;9.25;;;;;;;16.66;75.05;95878.16;5073426;28;20048;-76
2023/05/21 07:46:26;;;;;;;11.20;8.70;;;;;;;16.74;74.69;95882.63;5080701;28;20090;-77
2023/05/21 07:48:53;;;;;;;12.57;9.13;;;;;;;16.88;74.80;95885.59;5073782;28;20051;-76
2023/05/21 07:51:19;;;;;;;11.10;7.88;;;;;;;17.12;74.76;95880.81;5072605;28;20510;-76
2023/05/21 07:53:46;;;;;;;13.98;8.75;;;;;;;17.15;72.13;95871.81;5072908;28;20041;-76
2023/05/21 07:56:12;;;;;;;11.30;7.97;;;;;;;17.29;70.83;95883.03;5073150;28;20048;-77
2023/05/21 07:58:42;;;;;;;10.50;7.90;;;;;;;17.44;69.18;95878.50;5073661;28;20044;-76
2023/05/21 08:01:09;;;;;;;12.65;7.65;;;;;;;17.64;66.29;95884.63;5073327;28;20435;-77
2023/05/21 08:03:35;;;;;;;12.18;7.95;;;;;;;17.83;65.81;95879.00;5082753;28;20051;-77
2023/05/21 08:06:02;;;;;;;11.88;7.15;;;;;;;18.08;63.08;95889.50;5094018;28;20048;-78
2023/05/21 08:08:28;;;;;;;9.40;7.10;;;;;;;18.35;61.74;95887.41;5087709;28;20389;-76
2023/05/21 08:10:55;;;;;;;9.80;7.15;;;;;;;18.69;61.30;95891.69;5072251;28;20055;-76
2023/05/21 08:13:21;;;;;;;11.55;7.32;;;;;;;19.14;59.33;95894.38;5071920;28;21506;-76
2023/05/21 08:15:49;;;;;;;9.18;6.75;;;;;;;19.56;58.45;95897.38;5071145;28;20040;-76
2023/05/21 08:18:17;;;;;;;11.68;6.80;;;;;;;19.89;55.81;95889.22;5071747;28;20662;-76
2023/05/21 08:20:44;;;;;;;9.50;6.55;;;;;;;20.07;52.93;95901.94;5072774;28;20064;-78
2023/05/21 08:23:10;;;;;;;8.88;6.32;;;;;;;20.28;54.80;95889.34;5071367;28;20049;-77
2023/05/21 08:25:36;;;;;;;12.73;6.70;;;;;;;20.41;53.25;95904.41;5071420;28;20495;-78
2023/05/21 08:28:03;;;;;;;8.77;6.68;;;;;;;20.52;52.62;95898.91;5071657;28;20064;-78
2023/05/21 08:30:30;;;;;;;8.88;6.50;;;;;;;20.61;52.54;95901.28;5072772;28;20041;-77
2023/05/21 08:32:58;;;;;;;9.30;7.03;;;;;;;20.64;54.17;95900.50;5072245;28;20129;-77
2023/05/21 08:35:24;;;;;;;11.55;7.75;;;;;;;20.64;51.78;95898.50;5071700;28;20099;-77
2023/05/21 08:37:51;;;;;;;10.23;7.03;;;;;;;20.91;53.55;95898.91;5072059;28;20596;-76
2023/05/21 08:40:17;;;;;;;10.27;6.80;;;;;;;21.26;52.96;95897.31;5071071;28;20419;-76
2023/05/21 08:42:45;;;;;;;8.77;6.25;;;;;;;21.46;50.93;95900.47;5071623;28;20048;-78
2023/05/21 08:45:13;;;;;;;9.57;7.15;;;;;;;21.71;52.80;95897.59;5072158;28;20047;-77
2023/05/21 08:47:42;;;;;;;9.32;6.47;;;;;;;21.79;48.46;95897.16;5072082;28;20569;-77
2023/05/21 08:50:35;;;;;;;12.98;6.70;;;;;;;22.12;49.82;95887.53;5085044;28;20044;-76
2023/05/21 08:53:01;;;;;;;7.90;5.68;;;;;;;22.33;48.37;95891.38;5063873;28;20041;-77
2023/05/21 08:55:28;;;;;;;10.48;5.80;;;;;;;22.51;47.39;95892.06;5072911;28;20040;-77
2023/05/21 08:57:55;;;;;;;13.65;6.13;;;;;;;22.64;43.53;95904.25;5072267;28;20568;-76
2023/05/21 09:00:21;;;;;;;10.93;6.20;;;;;;;22.97;45.27;95902.06;5072721;28;20048;-76
2023/05/21 09:02:48;;;;;;;9.50;6.03;;;;;;;23.12;43.06;95897.94;5076498;28;20040;-78
2023/05/21 09:05:15;;;;;;;8.35;5.80;;;;;;;23.27;42.56;95904.16;5075787;28;20404;-78
2023/05/21 09:07:49;;;;;;;6.28;5.15;;;;;;;23.41;43.78;95897.66;5076040;28;20131;-77
2023/05/21 09:10:18;;;;;;;7.18;5.60;;;;;;;23.52;41.42;95903.13;5078561;28;20575;-76
2023/05/21 09:12:47;;;;;;;9.32;5.72;;;;;;;23.59;41.57;95909.38;5081615;28;20459;-76
2023/05/21 09:15:13;;;;;;;8.77;5.53;;;;;;;23.81;43.72;95903.63;5072480;28;20040;-76
2023/05/21 09:17:40;;;;;;;8.73;5.95;;;;;;;23.59;41.62;95903.81;5087625;28;20433;-78
2023/05/21 09:20:10;;;;;;;11.23;6.28;;;;;;;23.64;42.22;95906.16;5085003;28;20048;-76
2023/05/21 09:22:39;;;;;;;10.27;5.78;;;;;;;23.36;41.46;95912.00;5092477;28;20039;-76
2023/05/21 09:25:09;;;;;;;10.40;6.07;;;;;;;23.35;41.96;95916.00;5089478;28;20487;-76
2023/05/21 09:27:36;;;;;;;8.65;5.95;;;;;;;23.29;44.35;95917.66;5080688;28;20044;-78
2023/05/21 09:30:05;;;;;;;9.52;6.25;;;;;;;23.28;43.77;95910.50;5064212;28;20044;-78
2023/05/21 09:32:31;;;;;;;7.60;5.47;;;;;;;23.38;46.82;95904.81;5072722;28;20051;-78
2023/05/21 09:35:06;;;;;;;12.00;6.38;;;;;;;23.07;43.46;95911.47;5071621;28;20052;-77
2023/05/21 09:37:37;;;;;;;7.50;5.80;;;;;;;22.96;43.43;95916.34;5071358;28;20041;-76
2023/05/21 09:40:12;;;;;;;7.32;6.03;;;;;;;22.91;44.94;95920.34;5063979;28;20048;-76
2023/05/21 09:42:40;;;;;;;25.27;7.40;;;;;;;23.06;45.35;95904.34;5071710;28;20045;-76
2023/05/21 09:45:07;;;;;;;8.35;6.32;;;;;;;23.14;46.39;95911.44;5071558;28;20052;-76
2023/05/21 09:47:34;;;;;;;15.20;7.40;;;;;;;23.09;46.96;95912.66;5088699;28;20063;-76
2023/05/21 09:50:01;;;;;;;9.95;6.47;;;;;;;23.22;46.45;95912.13;5083067;28;20040;-76
2023/05/21 09:52:29;;;;;;;9.45;6.45;;;;;;;23.27;47.43;95908.91;5071855;28;20041;-76
2023/05/21 09:54:56;;;;;;;8.80;6.80;;;;;;;23.47;48.29;95915.47;5073485;28;20147;-77
2023/05/21 09:57:27;;;;;;;9.20;6.43;;;;;;;23.55;45.52;95905.88;5072605;28;20408;-77
2023/05/21 09:59:54;;;;;;;9.10;6.45;;;;;;;23.51;45.58;95904.31;5071244;28;20041;-77
2023/05/21 10:02:22;;;;;;;11.32;7.35;;;;;;;23.78;48.20;95907.22;5077329;28;20055;-77
2023/05/21 10:04:50;;;;;;;13.13;7.10;;;;;;;23.55;45.55;95907.84;5072417;28;20056;-77
2023/05/21 10:07:20;;;;;;;9.45;6.85;;;;;;;23.51;43.16;95904.31;5071456;28;20491;-76
2023/05/21 10:09:48;;;;;;;10.15;7.07;;;;;;;23.61;45.33;95918.09;5070640;28;20046;-78
2023/05/21 10:12:17;;;;;;;9.65;7.07;;;;;;;23.31;45.30;95904.13;5070957;28;20068;-78
2023/05/21 10:14:50;;;;;;;11.38;7.32;;;;;;;23.32;47.96;95908.47;5071876;28;20036;-76
2023/05/21 10:17:18;;;;;;;32.28;9.15;;;;;;;23.43;48.21;95898.03;5074034;28;20045;-78
2023/05/21 10:19:46;;;;;;;12.73;7.78;;;;;;;23.41;47.83;95904.00;5070526;28;20048;-76
2023/05/21 10:22:13;;;;;;;8.93;6.40;;;;;;;23.40;46.03;95907.22;5070409;28;20091;-76
2023/05/21 10:24:40;;;;;;;8.05;6.22;;;;;;;23.44;46.48;95896.84;5069733;28;20045;-76
2023/05/21 10:27:07;;;;;;;11.65;6.82;;;;;;;23.48;46.89;95907.91;5068968;28;20155;-77
2023/05/21 10:29:36;;;;;;;9.80;6.10;;;;;;;23.51;43.00;95896.78;5069071;28;20154;-78
2023/05/21 10:32:06;;;;;;;7.53;6.22;;;;;;;23.75;45.15;95896.91;5069156;28;20067;-77
2023/05/21 10:34:32;;;;;;;11.65;6.80;;;;;;;23.64;40.15;95897.84;5068809;28;20048;-76
2023/05/21 10:37:01;;;;;;;7.88;6.05;;;;;;;23.74;41.50;95895.34;5069306;28;20045;-76
2023/05/21 10:39:30;;;;;;;11.50;6.40;;;;;;;23.75;42.90;95888.59;5068794;28;20045;-76
2023/05/21 10:42:09;;;;;;;9.52;5.97;;;;;;;23.77;44.72;95886.19;5069778;28;20041;-76
2023/05/21 10:44:49;;;;;;;9.38;5.55;;;;;;;23.84;43.11;95886.09;5069083;28;20097;-76
2023/05/21 10:47:40;;;;;;;6.97;5.65;;;;;;;23.80;42.72;95890.91;5076515;28;20633;-77
2023/05/21 10:50:26;;;;;;;9.27;6.00;;;;;;;23.64;42.70;95889.50;5068992;28;20048;-77
2023/05/21 10:53:08;;;;;;;11.52;6.82;;;;;;;23.47;43.25;95887.69;5068885;28;20083;-77
2023/05/21 10:55:50;;;;;;;8.55;5.85;;;;;;;23.53;44.13;95883.25;5068749;28;20535;-77
2023/05/21 10:58:38;;;;;;;8.40;5.82;;;;;;;23.52;43.83;95881.66;5061427;28;20496;-77
2023/05/21 11:01:05;;;;;;;8.32;6.03;;;;;;;23.67;43.17;95879.56;5069124;28;20056;-78
2023/05/21 11:03:35;;;;;;;7.15;5.55;;;;;;;23.74;40.67;95887.00;5069007;28;20572;-77
2023/05/21 11:06:04;;;;;;;8.75;6.05;;;;;;;23.83;43.09;95879.75;5068784;28;20417;-76
2023/05/21 11:08:34;;;;;;;6.60;5.50;;;;;;;23.88;42.17;95887.63;5063116;28;20032;-77
2023/05/21 11:11:02;;;;;;;8.70;5.88;;;;;;;23.66;39.88;95881.53;5070711;28;20040;-77
2023/05/21 11:13:31;;;;;;;8.07;5.60;;;;;;;23.61;40.27;95879.19;5073592;28;20055;-76
2023/05/21 11:16:07;;;;;;;7.10;5.68;;;;;;;23.61;39.85;95878.41;5076500;28;20045;-76
2023/05/21 11:19:01;;;;;;;8.15;5.80;;;;;;;23.63;40.75;95882.38;5080246;28;20063;-76
2023/05/21 11:21:33;;;;;;;9.45;6.00;;;;;;;23.61;41.34;95884.75;5074966;28;20044;-76
2023/05/21 11:24:02;;;;;;;9.00;6.20;;;;;;;23.73;43.58;95879.88;5075101;28;20170;-77
2023/05/21 11:26:50;;;;;;;8.23;6.07;;;;;;;23.80;43.64;95871.44;5073965;28;20275;-76
2023/05/21 11:29:17;;;;;;;11.20;6.78;;;;;;;23.98;43.52;95869.25;5074869;28;20036;-76
2023/05/21 11:31:46;;;;;;;9.32;5.70;;;;;;;24.10;42.32;95876.22;5074170;28;20047;-76